Time;durP1;ratioP1;P1;durP2;ratioP2;P2;SDS_P1;SDS_P2;PMS_P1;PMS_P2;Temp;Humidity;BMP_temperature;BMP_pressure;BME280_temperature;BME280_humidity;BME280_pressure;Samples;Min_cycle;Max_cycle;Signal;HPM_P1;HPM_P2
2021/01/03 00:00:42;;;;;;;10.55;6.65;;;3.20;99.90;;;;;;5056123;28;20068;-61
2021/01/03 00:03:07;;;;;;;9.32;6.15;;;3.30;99.90;;;;;;5056852;28;20025;-63
2021/01/03 00:05:34;;;;;;;9.73;6.53;;;3.30;99.90;;;;;;5056004;28;20029;-65
2021/01/03 00:08:02;;;;;;;9.38;5.90;;;3.30;99.90;;;;;;5054895;28;20033;-60
2021/01/03 00:10:28;;;;;;;11.95;6.07;;;3.30;99.90;;;;;;5051942;28;20037;-60
2021/01/03 00:12:54;;;;;;;8.25;5.47;;;3.40;99.90;;;;;;5056878;28;20382;-61
2021/01/03 00:15:21;;;;;;;8.95;5.53;;;3.30;99.90;;;;;;5057431;28;20048;-65
2021/01/03 00:17:47;;;;;;;10.02;6.13;;;3.40;99.90;;;;;;5055640;28;20112;-66
2021/01/03 00:20:19;;;;;;;8.05;5.82;;;3.30;99.90;;;;;;5055963;28;20363;-66
2021/01/03 00:22:44;;;;;;;7.85;6.15;;;3.30;99.90;;;;;;5055803;28;20083;-62
2021/01/03 00:25:11;;;;;;;10.43;7.00;;;3.30;99.90;;;;;;5056616;28;20033;-63
2021/01/03 00:27:37;;;;;;;11.48;6.70;;;3.30;99.90;;;;;;5053851;28;20055;-62
2021/01/03 00:30:09;;;;;;;8.88;5.72;;;3.30;99.90;;;;;;5056588;28;20029;-60
2021/01/03 00:32:35;;;;;;;9.77;5.63;;;3.20;99.90;;;;;;5054896;28;20025;-58
2021/01/03 00:35:03;;;;;;;6.65;5.40;;;3.20;99.90;;;;;;5054515;28;20462;-58
2021/01/03 00:37:28;;;;;;;9.27;5.95;;;3.20;99.90;;;;;;5055734;28;20029;-59
2021/01/03 00:39:54;;;;;;;9.48;5.68;;;3.20;99.90;;;;;;5054004;28;20075;-59
2021/01/03 00:42:20;;;;;;;8.48;5.97;;;3.30;99.90;;;;;;5053992;28;20519;-59
2021/01/03 00:44:45;;;;;;;7.13;5.20;;;3.20;99.90;;;;;;5053266;28;20025;-60
2021/01/03 00:47:11;;;;;;;11.43;6.22;;;3.20;99.90;;;;;;5055350;28;20086;-64
2021/01/03 00:49:37;;;;;;;8.63;5.82;;;3.10;99.90;;;;;;5055000;28;20036;-60
2021/01/03 00:52:02;;;;;;;7.03;5.00;;;3.10;99.90;;;;;;5055029;28;20431;-61
2021/01/03 00:54:28;;;;;;;7.75;5.40;;;3.10;99.90;;;;;;5053368;28;20541;-62
2021/01/03 00:56:54;;;;;;;13.85;6.90;;;3.10;99.90;;;;;;5053189;28;20025;-60
2021/01/03 00:59:20;;;;;;;7.57;5.28;;;3.10;99.90;;;;;;5055108;28;20037;-59
2021/01/03 01:01:45;;;;;;;9.43;5.63;;;3.20;99.90;;;;;;5053092;28;20029;-60
2021/01/03 01:04:11;;;;;;;10.02;5.15;;;3.20;99.90;;;;;;5054383;28;20078;-60
2021/01/03 01:06:37;;;;;;;7.28;5.05;;;3.30;99.90;;;;;;5052493;28;20505;-61
2021/01/03 01:09:04;;;;;;;7.72;5.47;;;3.20;99.90;;;;;;5054544;28;20040;-59
2021/01/03 01:11:30;;;;;;;9.35;5.35;;;3.30;99.90;;;;;;5053759;28;20029;-63
2021/01/03 01:13:56;;;;;;;9.65;5.70;;;3.40;99.90;;;;;;5054700;28;20467;-60
2021/01/03 01:16:22;;;;;;;8.00;5.25;;;3.40;99.90;;;;;;5052915;28;20038;-58
2021/01/03 01:18:48;;;;;;;7.88;5.28;;;3.30;99.90;;;;;;5053413;28;20033;-60
2021/01/03 01:21:14;;;;;;;7.55;5.60;;;3.20;99.90;;;;;;5054014;28;20055;-60
2021/01/03 01:23:40;;;;;;;6.55;5.28;;;3.30;99.90;;;;;;5053298;28;20025;-59
2021/01/03 01:26:05;;;;;;;9.27;5.38;;;3.30;99.90;;;;;;5052215;28;20025;-58
2021/01/03 01:28:31;;;;;;;8.23;5.55;;;3.30;99.90;;;;;;5051683;28;20032;-60
2021/01/03 01:30:57;;;;;;;7.72;5.32;;;3.30;99.90;;;;;;5053935;28;20029;-58
2021/01/03 01:33:24;;;;;;;9.20;5.88;;;3.30;99.90;;;;;;5052801;28;20021;-61
2021/01/03 01:35:50;;;;;;;7.47;5.00;;;3.20;99.90;;;;;;5052060;28;20144;-58
2021/01/03 01:38:16;;;;;;;7.53;5.97;;;3.20;99.90;;;;;;5054278;28;20496;-60
2021/01/03 01:40:44;;;;;;;6.63;5.07;;;3.20;99.90;;;;;;5051852;28;20032;-58
2021/01/03 01:43:13;;;;;;;8.13;5.85;;;3.20;99.90;;;;;;5051907;28;20112;-58
2021/01/03 01:45:41;;;;;;;7.63;5.15;;;3.30;99.90;;;;;;5052135;28;20029;-61
2021/01/03 01:48:17;;;;;;;8.15;5.50;;;3.30;99.90;;;;;;5052874;28;20083;-59
2021/01/03 01:50:46;;;;;;;13.20;6.88;;;3.40;99.90;;;;;;5051850;28;20065;-59
2021/01/03 01:53:31;;;;;;;7.10;5.30;;;3.40;99.90;;;;;;5052652;28;20057;-59
2021/01/03 01:56:38;;;;;;;8.40;6.10;;;3.30;99.90;;;;;;5052650;28;20032;-60
2021/01/03 01:59:33;;;;;;;8.15;5.60;;;3.40;99.90;;;;;;5053229;28;20094;-63
2021/01/03 02:02:13;;;;;;;8.35;5.13;;;3.50;99.90;;;;;;5053170;28;20033;-58
2021/01/03 02:04:51;;;;;;;9.18;5.88;;;3.50;99.90;;;;;;5052090;28;20025;-60
2021/01/03 02:07:36;;;;;;;9.23;6.40;;;3.50;99.90;;;;;;5053720;28;20028;-60
2021/01/03 02:10:15;;;;;;;7.05;5.72;;;3.60;99.90;;;;;;5052426;28;20032;-58
2021/01/03 02:12:46;;;;;;;9.77;6.60;;;3.60;99.90;;;;;;5051035;28;20060;-60
2021/01/03 02:15:23;;;;;;;9.35;5.60;;;3.60;99.90;;;;;;5052550;28;20032;-60
2021/01/03 02:17:49;;;;;;;9.00;6.40;;;3.60;99.90;;;;;;5051761;28;20029;-59
2021/01/03 02:20:15;;;;;;;8.82;5.97;;;3.50;99.90;;;;;;5051933;28;20029;-59
2021/01/03 02:22:51;;;;;;;10.18;5.82;;;3.60;99.90;;;;;;5052415;28;20052;-59
2021/01/03 02:25:19;;;;;;;8.35;6.45;;;3.50;99.90;;;;;;5053451;28;20032;-60
2021/01/03 02:28:19;;;;;;;8.18;6.50;;;3.50;99.90;;;;;;5050999;28;20025;-58
2021/01/03 02:30:50;;;;;;;10.23;6.60;;;3.50;99.90;;;;;;5052466;28;20072;-58
2021/01/03 02:33:18;;;;;;;10.07;7.10;;;3.40;99.90;;;;;;5051980;28;20028;-58
2021/01/03 02:35:47;;;;;;;9.90;6.50;;;3.60;99.90;;;;;;5051012;28;20048;-59
2021/01/03 02:38:19;;;;;;;11.63;8.35;;;3.60;99.90;;;;;;5051822;28;20112;-58
2021/01/03 02:40:45;;;;;;;9.18;6.82;;;3.60;99.90;;;;;;5052267;28;20025;-59
2021/01/03 02:43:10;;;;;;;9.35;7.22;;;3.50;99.90;;;;;;5051508;28;20039;-60
2021/01/03 02:45:36;;;;;;;9.60;7.18;;;3.60;99.90;;;;;;5050251;28;20029;-63
2021/01/03 02:48:07;;;;;;;10.90;7.50;;;3.50;99.90;;;;;;5051707;28;20025;-59
2021/01/03 02:50:33;;;;;;;10.73;7.53;;;3.50;99.90;;;;;;5052857;28;20055;-68
2021/01/03 02:52:59;;;;;;;10.32;7.43;;;3.60;99.90;;;;;;5053278;28;20045;-59
2021/01/03 02:55:25;;;;;;;9.57;6.95;;;3.50;99.90;;;;;;5052880;28;20033;-64
2021/01/03 02:57:50;;;;;;;9.70;7.38;;;3.60;99.90;;;;;;5051902;28;20033;-59
2021/01/03 03:00:26;;;;;;;8.90;7.05;;;3.60;99.90;;;;;;5051132;28;20029;-59
2021/01/03 03:02:52;;;;;;;9.98;7.90;;;3.60;99.90;;;;;;5050561;28;20032;-59
2021/01/03 03:05:19;;;;;;;12.75;7.88;;;3.50;99.90;;;;;;5052046;28;20036;-59
2021/01/03 03:07:44;;;;;;;10.27;7.82;;;3.50;99.90;;;;;;5052059;28;20104;-59
2021/01/03 03:10:12;;;;;;;15.25;7.60;;;3.60;99.90;;;;;;5052156;28;20120;-69
2021/01/03 03:12:38;;;;;;;10.63;7.95;;;3.70;99.90;;;;;;5052067;28;20028;-60
2021/01/03 03:15:06;;;;;;;9.70;7.57;;;3.70;99.90;;;;;;5052581;28;20025;-60
2021/01/03 03:17:32;;;;;;;10.80;8.07;;;3.70;99.90;;;;;;5051764;28;20040;-68
2021/01/03 03:19:58;;;;;;;11.48;8.20;;;3.70;99.90;;;;;;5050677;28;20037;-59
2021/01/03 03:22:23;;;;;;;12.55;9.25;;;3.70;99.90;;;;;;5052009;28;20029;-59
2021/01/03 03:24:49;;;;;;;10.90;8.52;;;3.70;99.90;;;;;;5048579;28;20044;-59
2021/01/03 03:27:15;;;;;;;11.63;8.70;;;3.60;99.90;;;;;;5052044;28;20032;-59
2021/01/03 03:29:41;;;;;;;10.45;8.10;;;3.60;99.90;;;;;;5049456;28;20033;-60
2021/01/03 03:32:06;;;;;;;12.15;8.73;;;3.60;99.90;;;;;;5049996;28;20021;-59
2021/01/03 03:34:32;;;;;;;11.90;8.93;;;3.60;99.90;;;;;;5050780;28;20374;-59
2021/01/03 03:36:58;;;;;;;13.23;9.32;;;3.60;99.90;;;;;;5051473;28;20063;-59
2021/01/03 03:39:26;;;;;;;15.55;9.00;;;3.70;99.90;;;;;;5050883;28;20056;-58
2021/01/03 03:41:59;;;;;;;12.52;8.30;;;3.50;99.90;;;;;;5051492;28;20025;-60
2021/01/03 03:44:26;;;;;;;14.07;9.45;;;3.50;99.90;;;;;;5051977;28;20425;-59
2021/01/03 03:46:58;;;;;;;11.85;9.10;;;3.60;99.90;;;;;;5049936;28;20036;-58
2021/01/03 03:49:25;;;;;;;13.45;9.77;;;3.70;99.90;;;;;;5051804;28;20037;-59
2021/01/03 03:51:58;;;;;;;13.00;9.50;;;3.60;99.90;;;;;;5049408;28;20049;-59
2021/01/03 03:54:24;;;;;;;13.75;9.32;;;3.70;99.90;;;;;;5051686;28;20025;-59
2021/01/03 03:56:58;;;;;;;12.15;8.70;;;3.70;99.90;;;;;;5049737;28;20394;-59
2021/01/03 03:59:25;;;;;;;11.93;8.70;;;3.70;99.90;;;;;;5050303;28;20047;-60
2021/01/03 04:01:52;;;;;;;14.27;9.60;;;3.80;99.90;;;;;;5050562;28;20048;-58
2021/01/03 04:04:18;;;;;;;16.05;9.85;;;3.80;99.90;;;;;;5050111;28;20044;-59
2021/01/03 04:06:44;;;;;;;13.68;8.95;;;3.70;99.90;;;;;;5049580;28;20467;-63
2021/01/03 04:09:12;;;;;;;12.73;9.00;;;3.70;99.90;;;;;;5050405;28;20040;-58
2021/01/03 04:11:45;;;;;;;12.95;9.57;;;3.70;99.90;;;;;;5049916;28;20032;-67
2021/01/03 04:14:13;;;;;;;14.02;9.52;;;3.70;99.90;;;;;;5050440;28;20389;-58
2021/01/03 04:16:50;;;;;;;12.20;9.25;;;3.80;99.90;;;;;;5051385;28;20086;-64
2021/01/03 04:19:17;;;;;;;13.40;9.73;;;3.60;99.90;;;;;;5051602;28;20048;-59
2021/01/03 04:21:43;;;;;;;12.32;9.10;;;3.70;99.90;;;;;;5049249;28;20025;-59
2021/01/03 04:24:09;;;;;;;13.10;10.05;;;3.80;99.90;;;;;;5051639;28;20032;-58
2021/01/03 04:26:35;;;;;;;12.50;9.23;;;3.70;99.90;;;;;;5052038;28;20025;-59
2021/01/03 04:29:01;;;;;;;14.93;9.00;;;3.70;99.90;;;;;;5050745;28;20470;-58
2021/01/03 04:31:27;;;;;;;15.13;9.60;;;3.80;99.90;;;;;;5051630;28;20478;-59
2021/01/03 04:33:53;;;;;;;14.07;9.00;;;3.70;99.90;;;;;;5050725;28;20035;-58
2021/01/03 04:36:19;;;;;;;14.38;9.85;;;3.80;99.90;;;;;;5052657;28;20397;-58
2021/01/03 04:38:45;;;;;;;13.50;9.40;;;3.70;99.90;;;;;;5052611;28;20056;-58
2021/01/03 04:41:23;;;;;;;11.52;8.75;;;3.80;99.90;;;;;;5054905;28;20021;-58
2021/01/03 04:43:49;;;;;;;13.10;9.10;;;3.70;99.90;;;;;;5054478;28;20443;-58
2021/01/03 04:46:20;;;;;;;12.07;8.68;;;3.80;99.90;;;;;;5054996;28;20100;-58
2021/01/03 04:48:49;;;;;;;12.98;8.90;;;3.90;99.90;;;;;;5054609;28;20067;-60
2021/01/03 04:51:36;;;;;;;12.70;9.18;;;3.90;99.90;;;;;;5054666;28;20044;-58
2021/01/03 04:54:11;;;;;;;12.57;8.25;;;3.80;99.90;;;;;;5054200;28;20028;-59
2021/01/03 04:56:40;;;;;;;12.75;9.07;;;3.80;99.90;;;;;;5054019;28;20453;-58
2021/01/03 04:59:35;;;;;;;13.80;8.10;;;3.90;99.90;;;;;;5053440;28;20083;-57
2021/01/03 05:02:19;;;;;;;11.80;8.63;;;3.80;99.90;;;;;;5052954;28;20087;-68
2021/01/03 05:04:57;;;;;;;12.02;8.85;;;3.80;99.90;;;;;;5054091;28;20021;-58
2021/01/03 05:07:36;;;;;;;11.43;8.13;;;4.00;99.90;;;;;;5055363;28;20032;-58
2021/01/03 05:10:19;;;;;;;12.60;9.07;;;4.00;99.90;;;;;;5053501;28;20076;-59
2021/01/03 05:12:50;;;;;;;12.40;9.07;;;3.90;99.90;;;;;;5052680;28;20383;-63
2021/01/03 05:15:26;;;;;;;12.70;8.95;;;3.90;99.90;;;;;;5053207;28;20080;-59
2021/01/03 05:17:53;;;;;;;12.15;8.73;;;3.80;99.90;;;;;;5052395;28;20033;-58
2021/01/03 05:20:19;;;;;;;11.35;7.78;;;3.90;99.90;;;;;;5054120;28;20033;-59
2021/01/03 05:22:45;;;;;;;11.52;8.40;;;3.90;99.90;;;;;;5052312;28;20031;-58
2021/01/03 05:25:14;;;;;;;13.07;8.55;;;3.90;99.90;;;;;;5052842;28;20029;-58
2021/01/03 05:27:40;;;;;;;12.73;8.73;;;4.00;99.90;;;;;;5052840;28;20032;-65
2021/01/03 05:30:26;;;;;;;12.50;8.68;;;4.00;99.90;;;;;;5053162;28;20037;-60
2021/01/03 05:32:52;;;;;;;12.95;8.73;;;3.90;99.90;;;;;;5053660;28;20044;-61
2021/01/03 05:35:29;;;;;;;12.50;8.13;;;3.90;99.90;;;;;;5054489;28;20039;-59
2021/01/03 05:37:56;;;;;;;13.75;8.95;;;4.00;99.90;;;;;;5052657;28;20463;-60
2021/01/03 05:40:33;;;;;;;12.80;8.73;;;4.00;99.90;;;;;;5053139;28;20052;-58
2021/01/03 05:43:23;;;;;;;11.77;8.57;;;4.00;99.90;;;;;;5051984;28;20032;-58
2021/01/03 05:45:57;;;;;;;10.98;7.95;;;4.00;99.90;;;;;;5051964;28;20036;-58
2021/01/03 05:48:26;;;;;;;10.35;7.70;;;4.00;99.90;;;;;;5052162;28;20025;-63
2021/01/03 05:50:53;;;;;;;11.82;7.78;;;4.00;99.90;;;;;;5053445;28;20048;-60
2021/01/03 05:53:26;;;;;;;11.20;8.32;;;4.00;99.90;;;;;;5055985;28;20044;-60
2021/01/03 05:56:00;;;;;;;10.20;7.85;;;4.00;99.90;;;;;;5054296;28;20029;-58
2021/01/03 05:58:37;;;;;;;10.25;7.70;;;3.90;99.90;;;;;;5054162;28;20024;-58
2021/01/03 06:01:25;;;;;;;10.10;7.85;;;4.00;99.90;;;;;;5053744;28;20027;-58
2021/01/03 06:04:13;;;;;;;11.75;8.35;;;4.00;99.90;;;;;;5051761;28;20029;-59
2021/01/03 06:06:42;;;;;;;13.75;8.02;;;4.10;99.90;;;;;;5053529;28;20024;-60
2021/01/03 06:09:09;;;;;;;12.80;7.80;;;4.00;99.90;;;;;;5052813;28;20048;-58
2021/01/03 06:11:35;;;;;;;12.07;8.40;;;3.90;99.90;;;;;;5052574;28;20031;-58
2021/01/03 06:14:00;;;;;;;13.10;8.60;;;3.90;99.90;;;;;;5052879;28;20108;-57
2021/01/03 06:16:30;;;;;;;12.73;8.68;;;3.90;99.90;;;;;;5051991;28;20438;-60
2021/01/03 06:19:22;;;;;;;12.27;8.38;;;4.00;99.90;;;;;;5051729;28;20491;-58
2021/01/03 06:21:52;;;;;;;12.15;8.25;;;4.00;99.90;;;;;;5051931;28;20120;-61
2021/01/03 06:24:27;;;;;;;13.15;9.57;;;3.80;99.90;;;;;;5053558;28;20036;-61
2021/01/03 06:27:05;;;;;;;12.80;9.35;;;3.90;99.90;;;;;;5053282;28;20025;-58
2021/01/03 06:29:43;;;;;;;13.75;9.32;;;3.90;99.90;;;;;;5053284;28;20033;-59
2021/01/03 06:33:02;;;;;;;12.48;9.73;;;3.90;99.90;;;;;;5052448;28;20083;-58
2021/01/03 06:35:30;;;;;;;13.30;8.82;;;3.90;99.90;;;;;;5037914;28;20051;-58
2021/01/03 06:38:09;;;;;;;11.38;8.95;;;3.90;99.90;;;;;;5051786;28;20145;-58
2021/01/03 06:40:38;;;;;;;14.75;9.80;;;3.90;99.90;;;;;;5052764;28;20029;-63
2021/01/03 06:43:29;;;;;;;15.40;9.15;;;4.00;99.90;;;;;;5052748;28;20063;-61
2021/01/03 06:46:31;;;;;;;13.95;9.30;;;3.90;99.90;;;;;;5053640;28;20032;-64
2021/01/03 06:49:21;;;;;;;13.13;8.15;;;3.80;99.90;;;;;;5052106;28;20107;-64
2021/01/03 06:52:04;;;;;;;12.18;8.38;;;3.80;99.90;;;;;;5051961;28;20048;-65
2021/01/03 06:55:18;;;;;;;15.98;9.80;;;3.80;99.90;;;;;;5052253;28;20032;-58
2021/01/03 06:57:55;;;;;;;11.50;8.60;;;3.80;99.90;;;;;;5013925;28;20475;-59
2021/01/03 07:00:48;;;;;;;12.93;9.32;;;3.90;99.90;;;;;;5014228;28;20545;-59
2021/01/03 07:03:32;;;;;;;12.77;9.43;;;3.90;99.90;;;;;;5045566;28;20037;-60
2021/01/03 07:06:02;;;;;;;11.00;8.30;;;3.90;99.90;;;;;;5052514;28;20025;-60
2021/01/03 07:08:35;;;;;;;11.45;8.50;;;3.90;99.90;;;;;;5051515;28;20029;-58
2021/01/03 07:11:01;;;;;;;12.52;8.63;;;4.00;99.90;;;;;;5051781;28;20029;-58
2021/01/03 07:13:30;;;;;;;12.32;8.73;;;4.00;99.90;;;;;;5051952;28;20450;-64
2021/01/03 07:16:01;;;;;;;12.48;9.10;;;3.90;99.90;;;;;;5050639;28;20486;-62
2021/01/03 07:18:38;;;;;;;10.95;8.35;;;4.00;99.90;;;;;;5051562;28;20067;-60
2021/01/03 07:21:04;;;;;;;12.60;9.00;;;4.00;99.90;;;;;;5051896;28;20029;-65
2021/01/03 07:23:35;;;;;;;15.18;9.15;;;4.00;99.90;;;;;;5051600;28;20090;-64
2021/01/03 07:26:18;;;;;;;11.23;8.35;;;3.90;99.90;;;;;;5052237;28;20064;-62
2021/01/03 07:28:56;;;;;;;13.60;8.65;;;3.90;99.90;;;;;;5052135;28;20065;-58
2021/01/03 07:31:59;;;;;;;12.38;9.00;;;3.90;99.90;;;;;;5051641;28;20029;-59
2021/01/03 07:34:34;;;;;;;12.50;9.07;;;3.90;99.90;;;;;;5051101;28;20121;-64
2021/01/03 07:37:12;;;;;;;13.65;8.93;;;3.90;99.90;;;;;;5050282;28;20029;-59
2021/01/03 07:39:57;;;;;;;14.45;9.48;;;4.00;99.90;;;;;;5051669;28;20470;-58
2021/01/03 07:42:26;;;;;;;11.23;8.25;;;3.90;99.90;;;;;;5052555;28;20017;-61
2021/01/03 07:44:53;;;;;;;12.60;8.77;;;4.00;99.90;;;;;;5050275;28;20475;-65
2021/01/03 07:47:37;;;;;;;12.60;8.98;;;3.90;99.90;;;;;;5052456;28;20067;-57
2021/01/03 07:50:30;;;;;;;13.95;9.60;;;3.90;99.90;;;;;;5050509;28;20051;-58
2021/01/03 07:53:00;;;;;;;12.85;9.98;;;4.00;99.90;;;;;;5051399;28;20183;-60
2021/01/03 07:55:30;;;;;;;13.57;9.15;;;4.10;99.90;;;;;;5052831;28;20025;-63
2021/01/03 07:58:00;;;;;;;14.18;9.40;;;4.10;99.90;;;;;;5053114;28;20021;-63
2021/01/03 08:00:29;;;;;;;15.77;9.70;;;4.10;99.90;;;;;;5053979;28;20462;-61
2021/01/03 08:03:01;;;;;;;13.55;9.40;;;4.10;99.90;;;;;;5051669;28;20033;-66
2021/01/03 08:05:29;;;;;;;16.80;9.70;;;4.10;99.90;;;;;;5051791;28;20028;-65
2021/01/03 08:08:35;;;;;;;13.18;9.93;;;4.10;99.90;;;;;;5051921;28;20462;-60
2021/01/03 08:11:22;;;;;;;13.35;9.20;;;4.20;99.90;;;;;;5043878;28;20056;-59
2021/01/03 08:13:51;;;;;;;13.38;9.05;;;4.20;99.90;;;;;;5057412;28;20036;-67
2021/01/03 08:16:23;;;;;;;16.30;10.20;;;4.20;99.90;;;;;;5055496;28;20060;-63
2021/01/03 08:19:05;;;;;;;14.65;9.40;;;4.20;99.90;;;;;;5057001;28;20037;-68
2021/01/03 08:21:36;;;;;;;13.32;9.90;;;4.10;99.90;;;;;;5057097;28;20025;-61
2021/01/03 08:24:23;;;;;;;12.82;9.55;;;4.20;99.90;;;;;;5054410;28;20035;-59
2021/01/03 08:26:53;;;;;;;12.50;9.25;;;4.20;99.90;;;;;;5054332;28;20375;-60
2021/01/03 08:29:44;;;;;;;13.35;9.60;;;4.20;99.90;;;;;;5054425;28;20058;-58
2021/01/03 08:32:16;;;;;;;13.40;9.13;;;4.10;99.90;;;;;;5055005;28;20397;-58
2021/01/03 08:34:42;;;;;;;15.38;10.63;;;4.20;99.90;;;;;;5054545;28;20033;-59
2021/01/03 08:37:20;;;;;;;19.00;10.05;;;4.10;99.90;;;;;;5054770;28;20108;-59
2021/01/03 08:39:48;;;;;;;14.70;10.00;;;4.30;99.90;;;;;;5055547;28;20033;-58
2021/01/03 08:42:35;;;;;;;15.23;10.50;;;4.30;99.90;;;;;;5053296;28;20079;-59
2021/01/03 08:45:01;;;;;;;13.35;10.25;;;4.20;99.90;;;;;;5053371;28;20025;-60
2021/01/03 08:47:38;;;;;;;18.13;10.60;;;4.30;99.90;;;;;;5053730;28;20122;-62
2021/01/03 08:50:22;;;;;;;13.65;8.38;;;4.20;99.90;;;;;;5052788;28;20112;-58
2021/01/03 08:52:58;;;;;;;16.50;9.55;;;4.30;99.90;;;;;;5053483;28;20067;-59
2021/01/03 08:55:25;;;;;;;16.85;10.68;;;4.50;99.90;;;;;;5054083;28;20455;-59
2021/01/03 08:58:02;;;;;;;15.10;10.68;;;4.40;99.90;;;;;;5054516;28;20182;-59
2021/01/03 09:00:32;;;;;;;15.45;10.40;;;4.30;99.90;;;;;;5054561;28;20029;-60
2021/01/03 09:03:01;;;;;;;17.63;10.90;;;4.40;99.90;;;;;;5052709;28;20032;-60
2021/01/03 09:05:35;;;;;;;13.68;8.90;;;4.50;99.90;;;;;;5054494;28;20040;-60
2021/01/03 09:08:03;;;;;;;16.27;11.20;;;4.40;99.90;;;;;;5051757;28;20036;-59
2021/01/03 09:10:40;;;;;;;17.45;10.85;;;4.40;99.90;;;;;;5053221;28;20493;-60
2021/01/03 09:13:23;;;;;;;14.48;10.05;;;4.50;99.90;;;;;;5053139;28;20028;-58
2021/01/03 09:16:09;;;;;;;15.13;10.43;;;4.50;99.90;;;;;;5054137;28;20107;-59
2021/01/03 09:18:53;;;;;;;15.07;10.30;;;4.50;99.90;;;;;;5053311;28;20067;-58
2021/01/03 09:21:19;;;;;;;16.83;10.88;;;4.40;99.90;;;;;;5053619;28;20141;-59
2021/01/03 09:23:47;;;;;;;15.55;9.88;;;4.60;99.90;;;;;;5052431;28;20529;-63
2021/01/03 09:26:13;;;;;;;17.00;10.90;;;4.60;99.90;;;;;;5052370;28;20025;-58
2021/01/03 09:28:42;;;;;;;15.93;11.00;;;4.50;99.90;;;;;;5054189;28;20391;-59
2021/01/03 09:31:25;;;;;;;16.55;10.35;;;4.50;99.90;;;;;;5055073;28;20033;-57
2021/01/03 09:34:09;;;;;;;16.35;10.25;;;4.50;99.90;;;;;;5052853;28;20057;-58
2021/01/03 09:36:54;;;;;;;15.35;10.15;;;4.50;99.90;;;;;;5053016;28;20124;-59
2021/01/03 09:39:34;;;;;;;16.17;10.68;;;4.50;99.90;;;;;;5053488;28;20037;-58
2021/01/03 09:42:23;;;;;;;13.50;9.48;;;4.60;99.90;;;;;;5053324;28;20029;-69
2021/01/03 09:45:21;;;;;;;17.08;8.82;;;4.50;99.90;;;;;;5052761;28;20044;-59
2021/01/03 09:47:49;;;;;;;15.88;9.73;;;4.60;99.90;;;;;;5052647;28;20033;-59
2021/01/03 09:50:41;;;;;;;12.77;9.45;;;4.70;99.90;;;;;;5051681;28;20041;-58
2021/01/03 09:53:19;;;;;;;15.80;9.25;;;4.70;99.90;;;;;;5051435;28;20141;-58
2021/01/03 09:56:08;;;;;;;13.98;9.38;;;4.80;99.90;;;;;;5052469;28;20055;-58
2021/01/03 09:58:42;;;;;;;10.85;7.85;;;4.60;99.90;;;;;;5053231;28;20043;-59
2021/01/03 10:01:24;;;;;;;16.23;8.68;;;4.80;99.90;;;;;;5050472;28;20040;-58
2021/01/03 10:03:49;;;;;;;18.15;9.07;;;4.80;99.90;;;;;;5073133;28;20479;-58
2021/01/03 10:06:34;;;;;;;12.32;7.80;;;4.60;99.90;;;;;;5032042;28;20068;-61
2021/01/03 10:09:25;;;;;;;12.60;8.30;;;4.50;99.90;;;;;;5031618;28;20050;-65
2021/01/03 10:11:52;;;;;;;11.38;8.63;;;4.60;99.90;;;;;;5032501;28;20040;-62
2021/01/03 10:14:32;;;;;;;14.30;8.32;;;4.60;99.90;;;;;;5031616;28;20025;-61
2021/01/03 10:17:19;;;;;;;11.32;7.75;;;4.70;99.90;;;;;;5035016;28;20413;-66
2021/01/03 10:19:46;;;;;;;10.75;8.20;;;4.70;99.90;;;;;;5034241;28;20061;-61
2021/01/03 10:22:40;;;;;;;13.05;8.07;;;4.90;99.90;;;;;;5032082;28;20025;-60
2021/01/03 10:25:10;;;;;;;18.55;8.38;;;4.90;99.90;;;;;;5031402;28;20029;-61
2021/01/03 10:27:36;;;;;;;10.05;7.25;;;4.80;99.90;;;;;;5030955;28;20074;-59
2021/01/03 10:30:05;;;;;;;14.15;8.80;;;5.00;99.90;;;;;;5032332;28;20123;-67
2021/01/03 10:32:30;;;;;;;10.50;6.75;;;4.90;99.90;;;;;;5031605;28;20029;-59
2021/01/03 10:34:56;;;;;;;10.18;7.00;;;4.80;99.90;;;;;;5032722;28;20374;-59
2021/01/03 10:37:22;;;;;;;10.77;7.97;;;4.90;99.90;;;;;;5033066;28;20033;-59
2021/01/03 10:39:48;;;;;;;14.82;8.00;;;4.80;99.90;;;;;;5032835;28;20120;-58
2021/01/03 10:42:15;;;;;;;10.07;7.45;;;4.90;99.90;;;;;;5032612;28;20029;-61
2021/01/03 10:44:40;;;;;;;11.60;8.05;;;4.80;99.90;;;;;;5032864;28;20034;-61
2021/01/03 10:47:06;;;;;;;11.10;7.95;;;4.70;99.90;;;;;;5030981;28;20029;-58
2021/01/03 10:49:32;;;;;;;11.63;7.78;;;4.70;99.90;;;;;;5048499;28;20533;-57
2021/01/03 10:51:58;;;;;;;11.73;7.72;;;4.70;99.90;;;;;;5031510;28;20068;-57
2021/01/03 10:54:26;;;;;;;12.48;8.30;;;4.70;99.90;;;;;;5063915;28;20480;-59
2021/01/03 10:56:54;;;;;;;12.77;8.40;;;4.80;99.90;;;;;;5030916;28;20101;-61
2021/01/03 10:59:20;;;;;;;13.65;8.48;;;4.80;99.90;;;;;;5031095;28;20471;-59
2021/01/03 11:01:47;;;;;;;10.35;7.05;;;4.70;99.90;;;;;;5032836;28;20018;-58
2021/01/03 11:04:17;;;;;;;11.32;8.50;;;4.80;99.90;;;;;;5030521;28;20021;-60
2021/01/03 11:06:45;;;;;;;11.52;7.95;;;4.70;99.90;;;;;;5033091;28;20037;-59
2021/01/03 11:09:29;;;;;;;10.50;7.75;;;4.70;99.90;;;;;;5030771;28;20091;-60
2021/01/03 11:12:11;;;;;;;15.30;8.70;;;4.90;99.90;;;;;;5031621;28;20048;-60
2021/01/03 11:14:37;;;;;;;12.43;7.78;;;4.70;99.90;;;;;;5031813;28;20029;-61
2021/01/03 11:17:04;;;;;;;11.32;7.45;;;4.70;99.90;;;;;;5032315;28;20045;-67
2021/01/03 11:19:30;;;;;;;11.00;7.78;;;4.80;99.90;;;;;;5031289;28;20072;-60
2021/01/03 11:21:58;;;;;;;11.82;7.82;;;4.60;99.90;;;;;;5035922;28;20053;-60
2021/01/03 11:24:24;;;;;;;12.85;8.35;;;4.60;99.90;;;;;;5051119;28;20056;-61
2021/01/03 11:26:50;;;;;;;12.20;8.68;;;4.70;99.90;;;;;;5052457;28;20044;-63
2021/01/03 11:29:20;;;;;;;11.27;8.32;;;4.70;99.90;;;;;;5051315;28;20033;-64
2021/01/03 11:31:52;;;;;;;13.60;8.80;;;4.60;99.90;;;;;;5050873;28;20032;-63
2021/01/03 11:34:22;;;;;;;12.52;8.07;;;4.70;99.90;;;;;;5047414;28;20025;-60
2021/01/03 11:36:50;;;;;;;11.40;7.90;;;4.70;99.90;;;;;;5052102;28;20111;-58
2021/01/03 11:39:16;;;;;;;10.15;7.70;;;4.70;99.90;;;;;;5051795;28;20032;-63
2021/01/03 11:41:45;;;;;;;12.73;7.78;;;4.70;99.90;;;;;;5050167;28;20036;-59
2021/01/03 11:44:10;;;;;;;9.45;7.13;;;4.60;99.90;;;;;;5050109;28;20040;-59
2021/01/03 11:46:36;;;;;;;12.63;8.20;;;4.60;99.90;;;;;;5067514;28;20029;-58
2021/01/03 11:49:03;;;;;;;12.40;8.05;;;4.60;99.90;;;;;;5059785;28;20114;-68
2021/01/03 11:51:29;;;;;;;12.77;8.93;;;4.60;99.90;;;;;;5036412;28;20486;-61
2021/01/03 11:53:54;;;;;;;12.65;8.10;;;4.70;99.90;;;;;;5057361;28;20041;-60
2021/01/03 11:56:22;;;;;;;12.73;8.38;;;4.70;99.90;;;;;;5072202;28;20025;-60
2021/01/03 11:58:48;;;;;;;10.77;7.78;;;4.70;99.90;;;;;;5055510;28;20021;-60
2021/01/03 12:01:18;;;;;;;13.05;9.43;;;4.60;99.90;;;;;;5055253;28;20043;-59
2021/01/03 12:03:45;;;;;;;13.48;9.50;;;4.50;99.90;;;;;;5069723;28;20090;-61
2021/01/03 12:06:13;;;;;;;11.50;8.55;;;4.60;99.90;;;;;;5058372;28;20029;-59
2021/01/03 12:08:41;;;;;;;16.85;9.18;;;4.60;99.90;;;;;;5068284;28;20060;-64
2021/01/03 12:11:07;;;;;;;11.75;8.48;;;4.40;99.90;;;;;;5064152;28;20390;-61
2021/01/03 12:13:33;;;;;;;28.17;13.88;;;4.40;99.90;;;;;;5059418;28;20038;-60
2021/01/03 12:15:58;;;;;;;13.57;8.98;;;5.30;99.90;;;;;;5054174;28;20128;-60
2021/01/03 12:18:24;;;;;;;20.38;11.27;;;6.10;99.90;;;;;;5056332;28;20040;-61
2021/01/03 12:20:50;;;;;;;14.73;10.10;;;6.80;99.90;;;;;;5056298;28;20036;-60
2021/01/03 12:23:15;;;;;;;16.85;8.80;;;7.40;99.90;;;;;;5071510;28;20048;-60
2021/01/03 12:25:41;;;;;;;17.02;6.60;;;7.40;99.90;;;;;;5061662;28;20048;-61
2021/01/03 12:28:07;;;;;;;10.68;8.18;;;9.10;99.90;;;;;;5064737;28;20112;-61
2021/01/03 12:30:32;;;;;;;9.32;6.28;;;8.40;99.90;;;;;;5064949;28;20040;-62
2021/01/03 12:32:58;;;;;;;12.75;6.43;;;7.80;99.90;;;;;;5057046;28;20028;-69
2021/01/03 12:35:24;;;;;;;12.68;7.22;;;8.30;99.90;;;;;;5063424;28;20026;-70
2021/01/03 12:37:49;;;;;;;7.18;6.07;;;10.90;99.90;;;;;;5064209;28;20096;-61
2021/01/03 12:40:15;;;;;;;10.32;7.15;;;9.20;99.90;;;;;;5070353;28;20059;-58
2021/01/03 12:42:41;;;;;;;8.48;7.03;;;7.80;99.90;;;;;;5060671;28;20024;-60
2021/01/03 12:45:10;;;;;;;14.00;7.65;;;7.10;99.90;;;;;;5063355;28;20033;-61
2021/01/03 12:47:36;;;;;;;13.05;7.75;;;6.30;99.90;;;;;;5067280;28;20024;-59
2021/01/03 12:50:04;;;;;;;12.02;7.95;;;5.90;99.90;;;;;;5056807;28;20696;-62
2021/01/03 12:52:30;;;;;;;16.70;9.07;;;5.60;99.90;;;;;;5072868;28;20118;-61
2021/01/03 12:54:55;;;;;;;11.70;8.35;;;5.40;99.90;;;;;;5074159;28;20032;-61
2021/01/03 12:57:21;;;;;;;12.13;8.07;;;5.20;99.90;;;;;;5072672;28;20024;-66
2021/01/03 12:59:47;;;;;;;11.02;7.68;;;5.00;99.90;;;;;;5073550;28;20368;-60
2021/01/03 13:02:12;;;;;;;11.35;7.63;;;4.80;99.90;;;;;;5073696;28;20031;-61
2021/01/03 13:04:38;;;;;;;11.13;7.53;;;4.70;99.90;;;;;;5074413;28;20465;-61
2021/01/03 13:07:06;;;;;;;10.77;7.80;;;4.60;99.90;;;;;;5075324;28;20024;-68
2021/01/03 13:09:32;;;;;;;11.43;7.07;;;4.70;99.90;;;;;;5074171;28;20036;-61
2021/01/03 13:11:58;;;;;;;9.88;7.05;;;4.60;99.90;;;;;;5074170;28;20031;-64